sensor_id;sensor_type;location;lat;lon;timestamp;pressure;altitude;pressure_sealevel;temperature;humidity
28448;BME280;15675;52.870;-1.416;2022-11-15T00:00:54;99662.31;;;11.08;100.00
28448;BME280;15675;52.870;-1.416;2022-11-15T00:03:22;99669.34;;;11.01;100.00
28448;BME280;15675;52.870;-1.416;2022-11-15T00:05:48;99665.13;;;10.93;100.00
28448;BME280;15675;52.870;-1.416;2022-11-15T00:08:14;99653.34;;;10.68;100.00
28448;BME280;15675;52.870;-1.416;2022-11-15T00:10:40;99655.78;;;10.81;100.00
28448;BME280;15675;52.870;-1.416;2022-11-15T00:13:07;99659.22;;;10.83;100.00
28448;BME280;15675;52.870;-1.416;2022-11-15T00:15:36;99652.56;;;10.63;100.00
28448;BME280;15675;52.870;-1.416;2022-11-15T00:18:04;99655.50;;;10.37;100.00
28448;BME280;15675;52.870;-1.416;2022-11-15T00:20:31;99642.72;;;10.87;100.00
28448;BME280;15675;52.870;-1.416;2022-11-15T00:22:56;99641.47;;;10.52;100.00
28448;BME280;15675;52.870;-1.416;2022-11-15T00:25:22;99636.16;;;10.61;100.00
28448;BME280;15675;52.870;-1.416;2022-11-15T00:27:48;99629.31;;;10.56;100.00
28448;BME280;15675;52.870;-1.416;2022-11-15T00:30:13;99618.66;;;10.06;100.00
28448;BME280;15675;52.870;-1.416;2022-11-15T00:32:39;99623.72;;;10.18;100.00
28448;BME280;15675;52.870;-1.416;2022-11-15T00:35:05;99611.28;;;9.70;100.00
28448;BME280;15675;52.870;-1.416;2022-11-15T00:37:31;99607.03;;;9.63;100.00
28448;BME280;15675;52.870;-1.416;2022-11-15T00:39:56;99601.78;;;9.71;100.00
28448;BME280;15675;52.870;-1.416;2022-11-15T00:42:22;99598.44;;;9.59;100.00
28448;BME280;15675;52.870;-1.416;2022-11-15T00:44:48;99598.56;;;9.47;100.00
28448;BME280;15675;52.870;-1.416;2022-11-15T00:47:14;99592.44;;;9.53;100.00
28448;BME280;15675;52.870;-1.416;2022-11-15T00:49:40;99577.69;;;9.62;100.00
28448;BME280;15675;52.870;-1.416;2022-11-15T00:52:06;99570.03;;;9.50;100.00
28448;BME280;15675;52.870;-1.416;2022-11-15T00:54:32;99564.91;;;9.44;100.00
28448;BME280;15675;52.870;-1.416;2022-11-15T00:56:57;99558.78;;;9.53;100.00
28448;BME280;15675;52.870;-1.416;2022-11-15T00:59:23;99556.28;;;9.45;100.00
28448;BME280;15675;52.870;-1.416;2022-11-15T01:01:49;99551.09;;;9.42;100.00
28448;BME280;15675;52.870;-1.416;2022-11-15T01:04:15;99548.41;;;9.54;100.00
28448;BME280;15675;52.870;-1.416;2022-11-15T01:06:40;99547.63;;;9.44;100.00
28448;BME280;15675;52.870;-1.416;2022-11-15T01:09:06;99538.16;;;9.45;100.00
28448;BME280;15675;52.870;-1.416;2022-11-15T01:11:32;99529.44;;;9.52;100.00
28448;BME280;15675;52.870;-1.416;2022-11-15T01:13:57;99531.03;;;9.62;100.00
28448;BME280;15675;52.870;-1.416;2022-11-15T01:16:23;99518.31;;;9.41;100.00
28448;BME280;15675;52.870;-1.416;2022-11-15T01:18:49;99518.38;;;9.33;100.00
28448;BME280;15675;52.870;-1.416;2022-11-15T01:21:18;99515.66;;;9.48;100.00
28448;BME280;15675;52.870;-1.416;2022-11-15T01:23:44;99514.84;;;9.45;100.00
28448;BME280;15675;52.870;-1.416;2022-11-15T01:26:13;99513.00;;;9.52;100.00
28448;BME280;15675;52.870;-1.416;2022-11-15T01:28:41;99495.75;;;9.54;100.00
28448;BME280;15675;52.870;-1.416;2022-11-15T01:31:12;99500.97;;;9.46;100.00
28448;BME280;15675;52.870;-1.416;2022-11-15T01:33:38;99501.94;;;9.39;100.00
28448;BME280;15675;52.870;-1.416;2022-11-15T01:36:05;99495.63;;;9.61;100.00
28448;BME280;15675;52.870;-1.416;2022-11-15T01:38:31;99493.16;;;9.52;100.00
28448;BME280;15675;52.870;-1.416;2022-11-15T01:40:57;99486.22;;;9.54;100.00
28448;BME280;15675;52.870;-1.416;2022-11-15T01:43:28;99482.00;;;9.47;100.00
28448;BME280;15675;52.870;-1.416;2022-11-15T01:46:02;99480.78;;;9.76;100.00
28448;BME280;15675;52.870;-1.416;2022-11-15T01:48:33;99476.31;;;9.87;100.00
28448;BME280;15675;52.870;-1.416;2022-11-15T01:51:02;99470.34;;;9.83;100.00
28448;BME280;15675;52.870;-1.416;2022-11-15T01:53:30;99459.34;;;9.63;100.00
28448;BME280;15675;52.870;-1.416;2022-11-15T01:55:58;99460.22;;;9.60;100.00
28448;BME280;15675;52.870;-1.416;2022-11-15T01:58:27;99460.09;;;9.73;100.00
28448;BME280;15675;52.870;-1.416;2022-11-15T02:00:52;99458.44;;;9.67;100.00
28448;BME280;15675;52.870;-1.416;2022-11-15T02:03:19;99459.03;;;9.86;100.00
28448;BME280;15675;52.870;-1.416;2022-11-15T02:05:47;99444.25;;;9.94;100.00
28448;BME280;15675;52.870;-1.416;2022-11-15T02:08:14;99445.25;;;9.84;100.00
28448;BME280;15675;52.870;-1.416;2022-11-15T02:10:46;99435.47;;;10.06;100.00
28448;BME280;15675;52.870;-1.416;2022-11-15T02:13:14;99431.28;;;9.94;100.00
28448;BME280;15675;52.870;-1.416;2022-11-15T02:18:35;99419.09;;;10.01;100.00
28448;BME280;15675;52.870;-1.416;2022-11-15T02:21:13;99406.25;;;9.95;100.00
28448;BME280;15675;52.870;-1.416;2022-11-15T02:26:55;99399.41;;;9.89;100.00
28448;BME280;15675;52.870;-1.416;2022-11-15T02:32:58;99389.75;;;9.99;100.00
28448;BME280;15675;52.870;-1.416;2022-11-15T02:41:21;99352.72;;;9.92;100.00
28448;BME280;15675;52.870;-1.416;2022-11-15T02:43:08;99362.88;;;10.06;100.00
28448;BME280;15675;52.870;-1.416;2022-11-15T02:44:14;99359.41;;;10.06;100.00
28448;BME280;15675;52.870;-1.416;2022-11-15T02:46:45;99345.25;;;10.27;100.00
28448;BME280;15675;52.870;-1.416;2022-11-15T02:49:34;99336.00;;;10.12;100.00
28448;BME280;15675;52.870;-1.416;2022-11-15T02:52:00;99328.84;;;10.26;100.00
28448;BME280;15675;52.870;-1.416;2022-11-15T02:54:32;99316.94;;;10.13;100.00
28448;BME280;15675;52.870;-1.416;2022-11-15T02:57:04;99310.66;;;10.28;100.00
28448;BME280;15675;52.870;-1.416;2022-11-15T02:59:51;99311.59;;;10.24;100.00
28448;BME280;15675;52.870;-1.416;2022-11-15T03:04:58;99298.81;;;10.11;100.00
28448;BME280;15675;52.870;-1.416;2022-11-15T03:12:40;99296.59;;;9.90;100.00
28448;BME280;15675;52.870;-1.416;2022-11-15T03:15:17;99280.94;;;9.94;100.00
28448;BME280;15675;52.870;-1.416;2022-11-15T03:17:51;99291.47;;;9.85;100.00
28448;BME280;15675;52.870;-1.416;2022-11-15T03:20:19;99290.22;;;10.09;100.00
28448;BME280;15675;52.870;-1.416;2022-11-15T03:22:47;99285.81;;;10.13;100.00
28448;BME280;15675;52.870;-1.416;2022-11-15T03:25:17;99286.94;;;9.98;100.00
28448;BME280;15675;52.870;-1.416;2022-11-15T03:27:48;99285.75;;;10.19;100.00
28448;BME280;15675;52.870;-1.416;2022-11-15T03:30:16;99281.50;;;10.13;100.00
28448;BME280;15675;52.870;-1.416;2022-11-15T03:32:52;99266.00;;;10.12;100.00
28448;BME280;15675;52.870;-1.416;2022-11-15T03:35:21;99268.53;;;10.15;100.00
28448;BME280;15675;52.870;-1.416;2022-11-15T03:40:17;99268.41;;;10.21;100.00
28448;BME280;15675;52.870;-1.416;2022-11-15T03:43:48;99263.16;;;10.24;100.00
28448;BME280;15675;52.870;-1.416;2022-11-15T03:45:35;99259.69;;;10.25;100.00
28448;BME280;15675;52.870;-1.416;2022-11-15T03:48:06;99263.69;;;10.45;100.00
28448;BME280;15675;52.870;-1.416;2022-11-15T03:50:35;99260.34;;;10.38;100.00
28448;BME280;15675;52.870;-1.416;2022-11-15T03:53:01;99239.13;;;10.14;100.00
28448;BME280;15675;52.870;-1.416;2022-11-15T03:55:27;99250.25;;;10.21;100.00
28448;BME280;15675;52.870;-1.416;2022-11-15T03:57:55;99244.06;;;10.28;100.00
28448;BME280;15675;52.870;-1.416;2022-11-15T04:00:24;99239.06;;;10.19;100.00
28448;BME280;15675;52.870;-1.416;2022-11-15T04:02:50;99242.31;;;10.29;100.00
28448;BME280;15675;52.870;-1.416;2022-11-15T04:05:15;99235.50;;;10.23;100.00
28448;BME280;15675;52.870;-1.416;2022-11-15T04:07:41;99233.03;;;10.17;100.00
28448;BME280;15675;52.870;-1.416;2022-11-15T04:10:09;99221.72;;;10.21;100.00
28448;BME280;15675;52.870;-1.416;2022-11-15T04:12:38;99218.97;;;10.30;100.00
28448;BME280;15675;52.870;-1.416;2022-11-15T04:15:10;99208.88;;;10.15;100.00
28448;BME280;15675;52.870;-1.416;2022-11-15T04:17:39;99207.16;;;10.14;100.00
28448;BME280;15675;52.870;-1.416;2022-11-15T04:20:09;99206.00;;;10.30;100.00
28448;BME280;15675;52.870;-1.416;2022-11-15T04:22:56;99201.47;;;10.43;100.00
28448;BME280;15675;52.870;-1.416;2022-11-15T04:25:43;99206.09;;;10.24;100.00
28448;BME280;15675;52.870;-1.416;2022-11-15T04:28:10;99192.22;;;10.27;100.00
28448;BME280;15675;52.870;-1.416;2022-11-15T04:30:36;99185.25;;;10.30;100.00
28448;BME280;15675;52.870;-1.416;2022-11-15T04:33:02;99180.88;;;10.34;100.00
28448;BME280;15675;52.870;-1.416;2022-11-15T04:35:28;99190.22;;;10.43;100.00
28448;BME280;15675;52.870;-1.416;2022-11-15T04:38:02;99180.75;;;10.40;100.00
28448;BME280;15675;52.870;-1.416;2022-11-15T04:40:28;99170.50;;;10.32;100.00
28448;BME280;15675;52.870;-1.416;2022-11-15T04:42:54;99172.13;;;10.40;100.00
28448;BME280;15675;52.870;-1.416;2022-11-15T04:45:20;99171.19;;;10.44;100.00
28448;BME280;15675;52.870;-1.416;2022-11-15T04:47:46;99154.94;;;10.32;100.00
28448;BME280;15675;52.870;-1.416;2022-11-15T04:50:14;99150.69;;;10.30;100.00
28448;BME280;15675;52.870;-1.416;2022-11-15T04:52:42;99152.69;;;10.15;100.00
28448;BME280;15675;52.870;-1.416;2022-11-15T04:55:10;99158.47;;;10.30;100.00
28448;BME280;15675;52.870;-1.416;2022-11-15T04:57:36;99153.97;;;10.40;100.00
28448;BME280;15675;52.870;-1.416;2022-11-15T05:00:04;99146.41;;;10.27;100.00
28448;BME280;15675;52.870;-1.416;2022-11-15T05:02:30;99147.13;;;10.35;100.00
28448;BME280;15675;52.870;-1.416;2022-11-15T05:05:15;99135.03;;;10.33;100.00
28448;BME280;15675;52.870;-1.416;2022-11-15T05:07:41;99123.03;;;10.29;100.00
28448;BME280;15675;52.870;-1.416;2022-11-15T05:10:07;99121.34;;;10.28;100.00
28448;BME280;15675;52.870;-1.416;2022-11-15T05:12:33;99114.59;;;10.19;100.00
28448;BME280;15675;52.870;-1.416;2022-11-15T05:14:58;99116.00;;;10.35;100.00
28448;BME280;15675;52.870;-1.416;2022-11-15T05:17:24;99103.88;;;10.38;100.00
28448;BME280;15675;52.870;-1.416;2022-11-15T05:19:50;99109.03;;;10.39;100.00
28448;BME280;15675;52.870;-1.416;2022-11-15T05:22:18;99111.47;;;10.47;100.00
28448;BME280;15675;52.870;-1.416;2022-11-15T05:24:43;99087.09;;;10.54;100.00
28448;BME280;15675;52.870;-1.416;2022-11-15T05:27:09;99091.78;;;10.36;100.00
28448;BME280;15675;52.870;-1.416;2022-11-15T05:29:35;99081.53;;;10.30;100.00
28448;BME280;15675;52.870;-1.416;2022-11-15T05:32:00;99077.28;;;10.26;100.00
28448;BME280;15675;52.870;-1.416;2022-11-15T05:34:26;99077.06;;;10.37;100.00
28448;BME280;15675;52.870;-1.416;2022-11-15T05:36:52;99070.84;;;10.46;100.00
28448;BME280;15675;52.870;-1.416;2022-11-15T05:39:18;99052.84;;;10.38;100.00
28448;BME280;15675;52.870;-1.416;2022-11-15T05:41:47;99060.78;;;10.30;100.00
28448;BME280;15675;52.870;-1.416;2022-11-15T05:44:18;99060.72;;;10.35;100.00
28448;BME280;15675;52.870;-1.416;2022-11-15T05:46:45;99056.63;;;10.22;100.00
28448;BME280;15675;52.870;-1.416;2022-11-15T05:49:14;99059.91;;;10.30;100.00
28448;BME280;15675;52.870;-1.416;2022-11-15T05:51:41;99052.28;;;10.24;100.00
28448;BME280;15675;52.870;-1.416;2022-11-15T05:54:08;99047.75;;;10.33;100.00
28448;BME280;15675;52.870;-1.416;2022-11-15T05:56:35;99046.00;;;10.35;100.00
28448;BME280;15675;52.870;-1.416;2022-11-15T05:59:01;99048.44;;;10.42;100.00
28448;BME280;15675;52.870;-1.416;2022-11-15T06:01:28;99030.47;;;10.32;100.00
28448;BME280;15675;52.870;-1.416;2022-11-15T06:03:53;99016.44;;;10.43;100.00
28448;BME280;15675;52.870;-1.416;2022-11-15T06:06:19;99014.03;;;10.33;100.00
28448;BME280;15675;52.870;-1.416;2022-11-15T06:08:45;99024.44;;;10.32;100.00
28448;BME280;15675;52.870;-1.416;2022-11-15T06:11:10;99010.53;;;10.36;100.00
28448;BME280;15675;52.870;-1.416;2022-11-15T06:13:36;99007.78;;;10.44;100.00
28448;BME280;15675;52.870;-1.416;2022-11-15T06:16:02;99001.03;;;10.36;100.00
28448;BME280;15675;52.870;-1.416;2022-11-15T06:18:32;99008.84;;;10.33;100.00
28448;BME280;15675;52.870;-1.416;2022-11-15T06:20:59;98986.38;;;10.34;100.00
28448;BME280;15675;52.870;-1.416;2022-11-15T06:23:26;98989.81;;;10.34;100.00
28448;BME280;15675;52.870;-1.416;2022-11-15T06:25:51;98987.25;;;10.31;100.00
28448;BME280;15675;52.870;-1.416;2022-11-15T06:28:17;98990.75;;;10.30;100.00
28448;BME280;15675;52.870;-1.416;2022-11-15T06:30:43;98981.13;;;10.37;100.00
28448;BME280;15675;52.870;-1.416;2022-11-15T06:33:08;98976.84;;;10.33;100.00
28448;BME280;15675;52.870;-1.416;2022-11-15T06:35:35;98978.47;;;10.39;100.00
28448;BME280;15675;52.870;-1.416;2022-11-15T06:38:04;98979.31;;;10.41;100.00
28448;BME280;15675;52.870;-1.416;2022-11-15T06:40:33;98964.72;;;10.36;100.00
28448;BME280;15675;52.870;-1.416;2022-11-15T06:42:59;98968.19;;;10.35;100.00
28448;BME280;15675;52.870;-1.416;2022-11-15T06:45:25;98973.19;;;10.45;100.00
28448;BME280;15675;52.870;-1.416;2022-11-15T06:47:52;98963.72;;;10.42;100.00
28448;BME280;15675;52.870;-1.416;2022-11-15T06:50:17;98956.75;;;10.44;100.00
28448;BME280;15675;52.870;-1.416;2022-11-15T06:52:44;98966.19;;;10.47;100.00
28448;BME280;15675;52.870;-1.416;2022-11-15T06:55:09;98961.72;;;10.53;100.00
28448;BME280;15675;52.870;-1.416;2022-11-15T06:57:35;98961.75;;;10.52;100.00
28448;BME280;15675;52.870;-1.416;2022-11-15T07:00:04;98955.63;;;10.56;100.00
28448;BME280;15675;52.870;-1.416;2022-11-15T07:02:30;98956.41;;;10.58;100.00
28448;BME280;15675;52.870;-1.416;2022-11-15T07:04:56;98949.47;;;10.59;100.00
28448;BME280;15675;52.870;-1.416;2022-11-15T07:07:22;98933.34;;;10.46;100.00
28448;BME280;15675;52.870;-1.416;2022-11-15T07:09:47;98941.72;;;10.57;100.00
28448;BME280;15675;52.870;-1.416;2022-11-15T07:12:13;98933.81;;;10.63;100.00
28448;BME280;15675;52.870;-1.416;2022-11-15T07:14:39;98936.63;;;10.54;100.00
28448;BME280;15675;52.870;-1.416;2022-11-15T07:17:05;98934.44;;;10.71;100.00
28448;BME280;15675;52.870;-1.416;2022-11-15T07:19:31;98930.94;;;10.74;100.00
28448;BME280;15675;52.870;-1.416;2022-11-15T07:21:57;98923.44;;;10.63;100.00
28448;BME280;15675;52.870;-1.416;2022-11-15T07:24:22;98931.81;;;10.75;100.00
28448;BME280;15675;52.870;-1.416;2022-11-15T07:26:48;98924.66;;;10.83;100.00
28448;BME280;15675;52.870;-1.416;2022-11-15T07:29:14;98919.72;;;10.74;100.00
28448;BME280;15675;52.870;-1.416;2022-11-15T07:31:40;98915.28;;;10.77;100.00
28448;BME280;15675;52.870;-1.416;2022-11-15T07:34:05;98917.03;;;10.77;100.00
28448;BME280;15675;52.870;-1.416;2022-11-15T07:36:31;98913.44;;;10.82;100.00
28448;BME280;15675;52.870;-1.416;2022-11-15T07:38:57;98913.47;;;10.81;100.00
28448;BME280;15675;52.870;-1.416;2022-11-15T07:41:23;98915.84;;;10.88;100.00
28448;BME280;15675;52.870;-1.416;2022-11-15T07:43:51;98904.94;;;10.76;100.00
28448;BME280;15675;52.870;-1.416;2022-11-15T07:46:18;98907.16;;;10.91;100.00
28448;BME280;15675;52.870;-1.416;2022-11-15T07:48:44;98901.06;;;10.92;100.00
28448;BME280;15675;52.870;-1.416;2022-11-15T07:51:12;98894.28;;;10.86;100.00
28448;BME280;15675;52.870;-1.416;2022-11-15T07:53:39;98905.47;;;10.88;100.00
28448;BME280;15675;52.870;-1.416;2022-11-15T07:56:07;98897.81;;;10.84;100.00
28448;BME280;15675;52.870;-1.416;2022-11-15T07:58:33;98899.19;;;10.97;100.00
28448;BME280;15675;52.870;-1.416;2022-11-15T08:01:04;98892.63;;;10.84;100.00
28448;BME280;15675;52.870;-1.416;2022-11-15T08:03:32;98903.56;;;10.95;100.00
28448;BME280;15675;52.870;-1.416;2022-11-15T08:05:58;98899.31;;;10.93;100.00
28448;BME280;15675;52.870;-1.416;2022-11-15T08:08:24;98889.66;;;10.98;100.00
28448;BME280;15675;52.870;-1.416;2022-11-15T08:10:50;98880.25;;;10.94;100.00
28448;BME280;15675;52.870;-1.416;2022-11-15T08:13:16;98887.78;;;11.04;100.00
28448;BME280;15675;52.870;-1.416;2022-11-15T08:15:42;98884.22;;;11.07;100.00
28448;BME280;15675;52.870;-1.416;2022-11-15T08:18:12;98874.69;;;11.08;100.00
28448;BME280;15675;52.870;-1.416;2022-11-15T08:20:38;98877.16;;;11.12;100.00
28448;BME280;15675;52.870;-1.416;2022-11-15T08:23:04;98864.31;;;11.08;100.00
28448;BME280;15675;52.870;-1.416;2022-11-15T08:25:32;98855.78;;;11.02;100.00
28448;BME280;15675;52.870;-1.416;2022-11-15T08:27:59;98861.31;;;11.21;100.00
28448;BME280;15675;52.870;-1.416;2022-11-15T08:30:26;98859.34;;;10.98;100.00
28448;BME280;15675;52.870;-1.416;2022-11-15T08:32:53;98842.84;;;11.01;100.00
28448;BME280;15675;52.870;-1.416;2022-11-15T08:35:20;98841.84;;;11.07;100.00
28448;BME280;15675;52.870;-1.416;2022-11-15T08:37:46;98833.34;;;11.00;100.00
28448;BME280;15675;52.870;-1.416;2022-11-15T08:40:12;98834.81;;;11.10;100.00
28448;BME280;15675;52.870;-1.416;2022-11-15T08:42:39;98828.00;;;11.06;100.00
28448;BME280;15675;52.870;-1.416;2022-11-15T08:45:07;98823.47;;;11.13;100.00
28448;BME280;15675;52.870;-1.416;2022-11-15T08:47:33;98811.22;;;11.18;100.00
28448;BME280;15675;52.870;-1.416;2022-11-15T08:49:59;98805.94;;;11.21;100.00
28448;BME280;15675;52.870;-1.416;2022-11-15T08:52:30;98800.16;;;11.11;100.00
28448;BME280;15675;52.870;-1.416;2022-11-15T08:55:05;98802.50;;;11.20;100.00
28448;BME280;15675;52.870;-1.416;2022-11-15T08:57:31;98786.38;;;11.09;100.00
28448;BME280;15675;52.870;-1.416;2022-11-15T08:59:57;98799.94;;;11.19;100.00
28448;BME280;15675;52.870;-1.416;2022-11-15T09:02:23;98781.19;;;11.09;100.00
28448;BME280;15675;52.870;-1.416;2022-11-15T09:04:49;98776.88;;;11.08;100.00
28448;BME280;15675;52.870;-1.416;2022-11-15T09:07:15;98762.63;;;11.21;100.00
28448;BME280;15675;52.870;-1.416;2022-11-15T09:09:41;98765.38;;;11.17;100.00
28448;BME280;15675;52.870;-1.416;2022-11-15T09:12:07;98763.13;;;11.34;100.00
28448;BME280;15675;52.870;-1.416;2022-11-15T09:14:34;98759.38;;;11.15;100.00
28448;BME280;15675;52.870;-1.416;2022-11-15T09:17:00;98750.59;;;11.19;100.00
28448;BME280;15675;52.870;-1.416;2022-11-15T09:19:26;98747.78;;;11.27;100.00
28448;BME280;15675;52.870;-1.416;2022-11-15T09:21:52;98738.03;;;11.05;100.00
28448;BME280;15675;52.870;-1.416;2022-11-15T09:24:18;98742.88;;;11.16;100.00
28448;BME280;15675;52.870;-1.416;2022-11-15T09:26:44;98745.31;;;11.22;100.00
28448;BME280;15675;52.870;-1.416;2022-11-15T09:29:10;98734.22;;;11.17;100.00
28448;BME280;15675;52.870;-1.416;2022-11-15T09:31:36;98731.19;;;11.31;100.00
28448;BME280;15675;52.870;-1.416;2022-11-15T09:34:02;98737.34;;;11.28;100.00
28448;BME280;15675;52.870;-1.416;2022-11-15T09:36:28;98728.44;;;11.35;100.00
28448;BME280;15675;52.870;-1.416;2022-11-15T09:38:53;98723.25;;;11.35;100.00
28448;BME280;15675;52.870;-1.416;2022-11-15T09:44:20;98718.72;;;11.42;100.00
28448;BME280;15675;52.870;-1.416;2022-11-15T09:49:27;98701.28;;;11.46;100.00
28448;BME280;15675;52.870;-1.416;2022-11-15T09:51:55;98702.22;;;11.45;100.00
28448;BME280;15675;52.870;-1.416;2022-11-15T09:54:36;98704.84;;;11.43;100.00
28448;BME280;15675;52.870;-1.416;2022-11-15T09:57:12;98689.91;;;11.50;100.00
28448;BME280;15675;52.870;-1.416;2022-11-15T10:00:44;98687.56;;;11.42;100.00
28448;BME280;15675;52.870;-1.416;2022-11-15T10:02:47;98692.94;;;11.63;100.00
28448;BME280;15675;52.870;-1.416;2022-11-15T10:05:19;98683.59;;;11.57;100.00
28448;BME280;15675;52.870;-1.416;2022-11-15T10:07:54;98673.16;;;11.58;100.00
28448;BME280;15675;52.870;-1.416;2022-11-15T10:10:25;98665.22;;;11.63;100.00
28448;BME280;15675;52.870;-1.416;2022-11-15T10:12:51;98652.34;;;11.60;100.00
28448;BME280;15675;52.870;-1.416;2022-11-15T10:15:18;98650.31;;;11.68;100.00
28448;BME280;15675;52.870;-1.416;2022-11-15T10:18:09;98635.22;;;11.54;100.00
28448;BME280;15675;52.870;-1.416;2022-11-15T10:20:48;98648.69;;;11.66;100.00
28448;BME280;15675;52.870;-1.416;2022-11-15T10:23:18;98661.47;;;11.72;100.00
28448;BME280;15675;52.870;-1.416;2022-11-15T10:25:45;98652.03;;;11.69;100.00
28448;BME280;15675;52.870;-1.416;2022-11-15T10:28:25;98635.88;;;11.60;100.00
28448;BME280;15675;52.870;-1.416;2022-11-15T10:30:54;98644.50;;;11.62;100.00
28448;BME280;15675;52.870;-1.416;2022-11-15T10:35:48;98633.44;;;11.82;100.00
28448;BME280;15675;52.870;-1.416;2022-11-15T10:38:14;98637.09;;;11.76;100.00
28448;BME280;15675;52.870;-1.416;2022-11-15T10:40:40;98643.50;;;11.91;100.00
28448;BME280;15675;52.870;-1.416;2022-11-15T10:45:36;98632.16;;;12.19;100.00
28448;BME280;15675;52.870;-1.416;2022-11-15T10:48:22;98616.94;;;12.08;100.00
28448;BME280;15675;52.870;-1.416;2022-11-15T10:50:49;98628.56;;;12.23;100.00
28448;BME280;15675;52.870;-1.416;2022-11-15T10:53:39;98617.16;;;12.25;100.00
28448;BME280;15675;52.870;-1.416;2022-11-15T10:56:11;98607.50;;;12.29;100.00
28448;BME280;15675;52.870;-1.416;2022-11-15T10:58:44;98592.16;;;12.23;100.00
28448;BME280;15675;52.870;-1.416;2022-11-15T11:01:18;98597.41;;;12.21;100.00
28448;BME280;15675;52.870;-1.416;2022-11-15T11:03:58;98574.47;;;12.31;100.00
28448;BME280;15675;52.870;-1.416;2022-11-15T11:06:25;98583.09;;;12.33;100.00
28448;BME280;15675;52.870;-1.416;2022-11-15T11:08:55;98573.97;;;12.45;100.00
28448;BME280;15675;52.870;-1.416;2022-11-15T11:11:21;98571.31;;;12.47;100.00
28448;BME280;15675;52.870;-1.416;2022-11-15T11:13:48;98563.75;;;12.40;100.00
28448;BME280;15675;52.870;-1.416;2022-11-15T11:21:11;98535.47;;;12.31;100.00
28448;BME280;15675;52.870;-1.416;2022-11-15T11:23:44;98532.97;;;12.28;100.00
28448;BME280;15675;52.870;-1.416;2022-11-15T11:37:16;98495.31;;;12.60;100.00
28448;BME280;15675;52.870;-1.416;2022-11-15T11:40:10;98487.25;;;12.67;100.00
28448;BME280;15675;52.870;-1.416;2022-11-15T11:43:10;98486.00;;;12.77;100.00
28448;BME280;15675;52.870;-1.416;2022-11-15T11:46:10;98491.63;;;12.66;100.00
28448;BME280;15675;52.870;-1.416;2022-11-15T11:48:43;98482.50;;;12.56;100.00
28448;BME280;15675;52.870;-1.416;2022-11-15T11:51:20;98492.84;;;12.57;100.00
28448;BME280;15675;52.870;-1.416;2022-11-15T11:53:56;98469.47;;;12.56;100.00
28448;BME280;15675;52.870;-1.416;2022-11-15T11:56:27;98480.09;;;12.51;100.00
28448;BME280;15675;52.870;-1.416;2022-11-15T11:58:57;98480.00;;;12.75;100.00
28448;BME280;15675;52.870;-1.416;2022-11-15T12:01:30;98468.88;;;12.71;100.00
28448;BME280;15675;52.870;-1.416;2022-11-15T12:04:20;98472.91;;;12.78;100.00
28448;BME280;15675;52.870;-1.416;2022-11-15T12:09:23;98476.06;;;12.65;100.00
28448;BME280;15675;52.870;-1.416;2022-11-15T12:12:21;98473.88;;;12.76;100.00
28448;BME280;15675;52.870;-1.416;2022-11-15T12:14:58;98472.63;;;12.64;100.00
28448;BME280;15675;52.870;-1.416;2022-11-15T12:17:29;98466.56;;;12.64;100.00
28448;BME280;15675;52.870;-1.416;2022-11-15T12:20:02;98453.25;;;12.71;100.00
28448;BME280;15675;52.870;-1.416;2022-11-15T12:23:52;98458.19;;;12.77;100.00
28448;BME280;15675;52.870;-1.416;2022-11-15T12:25:54;98455.31;;;12.63;100.00
28448;BME280;15675;52.870;-1.416;2022-11-15T12:31:22;98468.63;;;12.55;100.00
28448;BME280;15675;52.870;-1.416;2022-11-15T12:33:55;98462.63;;;12.75;100.00
28448;BME280;15675;52.870;-1.416;2022-11-15T12:39:08;98484.19;;;12.57;100.00
28448;BME280;15675;52.870;-1.416;2022-11-15T12:41:37;98468.19;;;12.66;100.00
28448;BME280;15675;52.870;-1.416;2022-11-15T12:44:05;98474.28;;;12.87;100.00
28448;BME280;15675;52.870;-1.416;2022-11-15T13:02:32;98425.31;;;12.75;100.00
28448;BME280;15675;52.870;-1.416;2022-11-15T13:17:39;98394.34;;;12.69;100.00
28448;BME280;15675;52.870;-1.416;2022-11-15T13:22:48;98369.38;;;12.65;100.00
28448;BME280;15675;52.870;-1.416;2022-11-15T13:28:20;98350.03;;;12.91;100.00
28448;BME280;15675;52.870;-1.416;2022-11-15T13:33:46;98335.72;;;13.01;100.00
28448;BME280;15675;52.870;-1.416;2022-11-15T13:36:06;98324.00;;;12.91;100.00
28448;BME280;15675;52.870;-1.416;2022-11-15T13:38:39;98313.88;;;13.04;100.00
28448;BME280;15675;52.870;-1.416;2022-11-15T13:41:22;98307.00;;;13.22;100.00
28448;BME280;15675;52.870;-1.416;2022-11-15T13:43:51;98319.38;;;13.37;100.00
28448;BME280;15675;52.870;-1.416;2022-11-15T13:48:46;98346.75;;;13.06;100.00
28448;BME280;15675;52.870;-1.416;2022-11-15T13:51:49;98349.84;;;12.95;100.00
28448;BME280;15675;52.870;-1.416;2022-11-15T13:56:54;98349.56;;;12.81;100.00
28448;BME280;15675;52.870;-1.416;2022-11-15T13:59:33;98353.50;;;12.71;100.00
28448;BME280;15675;52.870;-1.416;2022-11-15T14:02:11;98350.25;;;12.66;100.00
28448;BME280;15675;52.870;-1.416;2022-11-15T14:04:45;98348.66;;;12.82;100.00
28448;BME280;15675;52.870;-1.416;2022-11-15T14:07:18;98351.75;;;12.71;100.00
28448;BME280;15675;52.870;-1.416;2022-11-15T14:09:45;98360.56;;;13.08;100.00
28448;BME280;15675;52.870;-1.416;2022-11-15T14:12:32;98367.22;;;12.95;100.00
28448;BME280;15675;52.870;-1.416;2022-11-15T14:15:02;98354.22;;;12.74;100.00
28448;BME280;15675;52.870;-1.416;2022-11-15T14:19:54;98366.88;;;12.82;100.00
28448;BME280;15675;52.870;-1.416;2022-11-15T14:22:22;98369.94;;;12.51;100.00
28448;BME280;15675;52.870;-1.416;2022-11-15T14:27:40;98378.13;;;12.19;100.00
28448;BME280;15675;52.870;-1.416;2022-11-15T14:30:13;98395.31;;;12.23;100.00
28448;BME280;15675;52.870;-1.416;2022-11-15T14:35:13;98392.25;;;12.36;100.00
28448;BME280;15675;52.870;-1.416;2022-11-15T14:37:40;98399.44;;;12.29;100.00
28448;BME280;15675;52.870;-1.416;2022-11-15T14:40:06;98400.41;;;12.04;100.00